sensor_id;sensor_type;location;lat;lon;timestamp;temperature;humidity
7562;DHT22;3822;48.784;9.174;2023-03-13T00:01:12;11.50;83.20
7562;DHT22;3822;48.784;9.174;2023-03-13T00:03:39;11.50;83.10
7562;DHT22;3822;48.784;9.174;2023-03-13T00:06:05;11.50;83.00
7562;DHT22;3822;48.784;9.174;2023-03-13T00:08:32;11.50;83.10
7562;DHT22;3822;48.784;9.174;2023-03-13T00:11:01;11.50;83.10
7562;DHT22;3822;48.784;9.174;2023-03-13T00:13:31;11.40;83.10
7562;DHT22;3822;48.784;9.174;2023-03-13T00:16:04;11.40;83.20
7562;DHT22;3822;48.784;9.174;2023-03-13T00:18:32;11.40;83.40
7562;DHT22;3822;48.784;9.174;2023-03-13T00:21:05;11.40;83.40
7562;DHT22;3822;48.784;9.174;2023-03-13T00:23:33;11.40;83.50
7562;DHT22;3822;48.784;9.174;2023-03-13T00:26:10;11.30;83.50
7562;DHT22;3822;48.784;9.174;2023-03-13T00:28:38;11.30;83.60
7562;DHT22;3822;48.784;9.174;2023-03-13T00:31:09;11.30;83.70
7562;DHT22;3822;48.784;9.174;2023-03-13T00:33:38;11.30;83.90
7562;DHT22;3822;48.784;9.174;2023-03-13T00:36:06;11.30;84.00
7562;DHT22;3822;48.784;9.174;2023-03-13T00:38:37;11.30;84.10
7562;DHT22;3822;48.784;9.174;2023-03-13T00:41:08;11.20;84.10
7562;DHT22;3822;48.784;9.174;2023-03-13T00:43:41;11.20;84.10
7562;DHT22;3822;48.784;9.174;2023-03-13T00:46:08;11.20;84.20
7562;DHT22;3822;48.784;9.174;2023-03-13T00:48:35;11.20;84.30
7562;DHT22;3822;48.784;9.174;2023-03-13T00:51:03;11.20;84.40
7562;DHT22;3822;48.784;9.174;2023-03-13T00:53:30;11.20;84.50
7562;DHT22;3822;48.784;9.174;2023-03-13T00:55:57;11.20;84.60
7562;DHT22;3822;48.784;9.174;2023-03-13T00:58:25;11.20;84.70
7562;DHT22;3822;48.784;9.174;2023-03-13T01:00:53;11.20;84.80
7562;DHT22;3822;48.784;9.174;2023-03-13T01:03:20;11.10;84.80
7562;DHT22;3822;48.784;9.174;2023-03-13T01:06:00;11.10;84.80
7562;DHT22;3822;48.784;9.174;2023-03-13T01:08:27;11.10;84.80
7562;DHT22;3822;48.784;9.174;2023-03-13T01:11:01;11.10;84.90
7562;DHT22;3822;48.784;9.174;2023-03-13T01:13:28;11.10;85.00
7562;DHT22;3822;48.784;9.174;2023-03-13T01:16:16;11.10;85.10
7562;DHT22;3822;48.784;9.174;2023-03-13T01:18:45;11.10;85.20
7562;DHT22;3822;48.784;9.174;2023-03-13T01:21:13;11.10;85.30
7562;DHT22;3822;48.784;9.174;2023-03-13T01:23:40;11.10;85.40
7562;DHT22;3822;48.784;9.174;2023-03-13T01:26:07;11.10;85.40
7562;DHT22;3822;48.784;9.174;2023-03-13T01:28:34;11.10;85.50
7562;DHT22;3822;48.784;9.174;2023-03-13T01:31:09;11.10;85.60
7562;DHT22;3822;48.784;9.174;2023-03-13T01:33:36;11.10;85.60
7562;DHT22;3822;48.784;9.174;2023-03-13T01:36:03;11.10;85.70
7562;DHT22;3822;48.784;9.174;2023-03-13T01:38:29;11.10;85.70
7562;DHT22;3822;48.784;9.174;2023-03-13T01:40:56;11.10;85.80
7562;DHT22;3822;48.784;9.174;2023-03-13T01:43:23;11.10;85.80
7562;DHT22;3822;48.784;9.174;2023-03-13T01:51:20;11.10;86.00
7562;DHT22;3822;48.784;9.174;2023-03-13T01:53:50;11.10;86.00
7562;DHT22;3822;48.784;9.174;2023-03-13T01:56:23;11.10;86.00
7562;DHT22;3822;48.784;9.174;2023-03-13T01:59:05;11.10;86.10
7562;DHT22;3822;48.784;9.174;2023-03-13T02:01:34;11.10;86.20
7562;DHT22;3822;48.784;9.174;2023-03-13T02:04:00;11.10;86.20
7562;DHT22;3822;48.784;9.174;2023-03-13T02:06:27;11.10;86.30
7562;DHT22;3822;48.784;9.174;2023-03-13T02:08:56;11.10;86.30
7562;DHT22;3822;48.784;9.174;2023-03-13T02:11:40;11.10;86.40
7562;DHT22;3822;48.784;9.174;2023-03-13T02:14:27;11.10;86.50
7562;DHT22;3822;48.784;9.174;2023-03-13T02:16:55;11.10;86.50
7562;DHT22;3822;48.784;9.174;2023-03-13T02:19:37;11.10;86.50
7562;DHT22;3822;48.784;9.174;2023-03-13T02:27:42;11.10;86.50
7562;DHT22;3822;48.784;9.174;2023-03-13T02:30:10;11.10;86.50
7562;DHT22;3822;48.784;9.174;2023-03-13T02:32:37;11.10;86.50
7562;DHT22;3822;48.784;9.174;2023-03-13T02:35:08;11.10;86.40
7562;DHT22;3822;48.784;9.174;2023-03-13T02:37:36;11.10;86.40
7562;DHT22;3822;48.784;9.174;2023-03-13T02:40:05;11.10;86.30
7562;DHT22;3822;48.784;9.174;2023-03-13T02:42:37;11.10;86.30
7562;DHT22;3822;48.784;9.174;2023-03-13T02:45:04;11.20;86.30
7562;DHT22;3822;48.784;9.174;2023-03-13T02:47:31;11.20;86.30
7562;DHT22;3822;48.784;9.174;2023-03-13T02:49:57;11.20;86.20
7562;DHT22;3822;48.784;9.174;2023-03-13T02:52:25;11.20;86.20
7562;DHT22;3822;48.784;9.174;2023-03-13T02:54:57;11.20;86.20
7562;DHT22;3822;48.784;9.174;2023-03-13T02:57:26;11.20;86.20
7562;DHT22;3822;48.784;9.174;2023-03-13T02:59:53;11.30;86.30
7562;DHT22;3822;48.784;9.174;2023-03-13T03:02:20;11.40;86.40
7562;DHT22;3822;48.784;9.174;2023-03-13T03:04:47;11.30;86.30
7562;DHT22;3822;48.784;9.174;2023-03-13T03:07:13;11.30;86.40
7562;DHT22;3822;48.784;9.174;2023-03-13T03:09:40;11.30;86.40
7562;DHT22;3822;48.784;9.174;2023-03-13T03:12:06;11.40;86.40
7562;DHT22;3822;48.784;9.174;2023-03-13T03:14:33;11.40;86.40
7562;DHT22;3822;48.784;9.174;2023-03-13T03:16:59;11.40;86.40
7562;DHT22;3822;48.784;9.174;2023-03-13T03:19:26;11.50;86.60
7562;DHT22;3822;48.784;9.174;2023-03-13T03:21:52;11.50;86.60
7562;DHT22;3822;48.784;9.174;2023-03-13T03:24:18;11.50;86.80
7562;DHT22;3822;48.784;9.174;2023-03-13T03:26:45;11.50;86.90
7562;DHT22;3822;48.784;9.174;2023-03-13T03:29:11;11.60;87.10
7562;DHT22;3822;48.784;9.174;2023-03-13T03:31:38;11.60;87.30
7562;DHT22;3822;48.784;9.174;2023-03-13T03:34:04;11.60;87.50
7562;DHT22;3822;48.784;9.174;2023-03-13T03:36:30;11.60;87.80
7562;DHT22;3822;48.784;9.174;2023-03-13T03:38:57;11.70;88.00
7562;DHT22;3822;48.784;9.174;2023-03-13T03:41:24;11.70;88.30
7562;DHT22;3822;48.784;9.174;2023-03-13T03:43:50;11.70;88.20
7562;DHT22;3822;48.784;9.174;2023-03-13T03:46:16;11.70;88.50
7562;DHT22;3822;48.784;9.174;2023-03-13T03:48:43;11.80;88.50
7562;DHT22;3822;48.784;9.174;2023-03-13T03:51:10;11.80;88.60
7562;DHT22;3822;48.784;9.174;2023-03-13T03:53:37;11.80;88.70
7562;DHT22;3822;48.784;9.174;2023-03-13T03:56:03;11.80;89.10
7562;DHT22;3822;48.784;9.174;2023-03-13T03:58:30;11.80;89.00
7562;DHT22;3822;48.784;9.174;2023-03-13T04:00:56;11.90;89.30
7562;DHT22;3822;48.784;9.174;2023-03-13T04:03:23;11.90;89.30
7562;DHT22;3822;48.784;9.174;2023-03-13T04:05:50;11.90;89.50
7562;DHT22;3822;48.784;9.174;2023-03-13T04:08:16;11.90;89.70
7562;DHT22;3822;48.784;9.174;2023-03-13T04:10:43;12.00;90.00
7562;DHT22;3822;48.784;9.174;2023-03-13T04:13:09;12.00;90.10
7562;DHT22;3822;48.784;9.174;2023-03-13T04:15:37;12.00;90.50
7562;DHT22;3822;48.784;9.174;2023-03-13T04:18:04;12.00;90.70
7562;DHT22;3822;48.784;9.174;2023-03-13T04:20:30;12.10;91.10
7562;DHT22;3822;48.784;9.174;2023-03-13T04:22:56;12.10;91.60
7562;DHT22;3822;48.784;9.174;2023-03-13T04:25:23;12.20;92.00
7562;DHT22;3822;48.784;9.174;2023-03-13T04:27:49;12.30;92.40
7562;DHT22;3822;48.784;9.174;2023-03-13T04:30:15;12.30;92.70
7562;DHT22;3822;48.784;9.174;2023-03-13T04:32:42;12.40;93.10
7562;DHT22;3822;48.784;9.174;2023-03-13T04:35:08;12.50;93.10
7562;DHT22;3822;48.784;9.174;2023-03-13T04:37:35;12.60;93.10
7562;DHT22;3822;48.784;9.174;2023-03-13T04:40:01;12.60;93.10
7562;DHT22;3822;48.784;9.174;2023-03-13T04:42:27;12.70;93.20
7562;DHT22;3822;48.784;9.174;2023-03-13T04:44:54;12.80;93.20
7562;DHT22;3822;48.784;9.174;2023-03-13T04:47:20;12.80;93.20
7562;DHT22;3822;48.784;9.174;2023-03-13T04:49:46;12.90;93.30
7562;DHT22;3822;48.784;9.174;2023-03-13T04:52:13;12.90;93.20
7562;DHT22;3822;48.784;9.174;2023-03-13T04:54:39;13.50;93.40
7562;DHT22;3822;48.784;9.174;2023-03-13T04:57:05;13.00;93.20
7562;DHT22;3822;48.784;9.174;2023-03-13T04:59:32;13.10;93.10
7562;DHT22;3822;48.784;9.174;2023-03-13T05:01:58;13.10;93.10
7562;DHT22;3822;48.784;9.174;2023-03-13T05:04:24;13.20;93.10
7562;DHT22;3822;48.784;9.174;2023-03-13T05:06:51;13.20;93.10
7562;DHT22;3822;48.784;9.174;2023-03-13T05:09:17;13.20;93.00
7562;DHT22;3822;48.784;9.174;2023-03-13T05:11:43;13.20;93.30
7562;DHT22;3822;48.784;9.174;2023-03-13T05:14:10;13.20;93.10
7562;DHT22;3822;48.784;9.174;2023-03-13T05:16:39;13.20;93.00
7562;DHT22;3822;48.784;9.174;2023-03-13T05:19:05;13.30;93.10
7562;DHT22;3822;48.784;9.174;2023-03-13T05:21:32;13.30;93.00
7562;DHT22;3822;48.784;9.174;2023-03-13T05:23:58;13.30;93.00
7562;DHT22;3822;48.784;9.174;2023-03-13T05:26:24;13.30;93.00
7562;DHT22;3822;48.784;9.174;2023-03-13T05:28:51;13.30;93.00
7562;DHT22;3822;48.784;9.174;2023-03-13T05:31:17;13.30;93.00
7562;DHT22;3822;48.784;9.174;2023-03-13T05:33:44;13.40;93.00
7562;DHT22;3822;48.784;9.174;2023-03-13T05:36:10;13.40;92.90
7562;DHT22;3822;48.784;9.174;2023-03-13T05:38:36;13.40;92.90
7562;DHT22;3822;48.784;9.174;2023-03-13T05:41:03;13.40;92.90
7562;DHT22;3822;48.784;9.174;2023-03-13T05:43:29;13.40;92.90
7562;DHT22;3822;48.784;9.174;2023-03-13T05:45:55;13.40;92.80
7562;DHT22;3822;48.784;9.174;2023-03-13T05:48:22;13.50;92.80
7562;DHT22;3822;48.784;9.174;2023-03-13T05:50:48;13.50;92.90
7562;DHT22;3822;48.784;9.174;2023-03-13T05:53:14;13.50;92.90
7562;DHT22;3822;48.784;9.174;2023-03-13T05:55:41;13.40;92.90
7562;DHT22;3822;48.784;9.174;2023-03-13T05:58:07;13.50;93.00
7562;DHT22;3822;48.784;9.174;2023-03-13T06:00:33;13.50;93.00
7562;DHT22;3822;48.784;9.174;2023-03-13T06:03:00;13.50;93.00
7562;DHT22;3822;48.784;9.174;2023-03-13T06:05:26;13.50;92.90
7562;DHT22;3822;48.784;9.174;2023-03-13T06:07:53;13.50;92.90
7562;DHT22;3822;48.784;9.174;2023-03-13T06:10:19;13.50;92.90
7562;DHT22;3822;48.784;9.174;2023-03-13T06:12:52;13.60;93.00
7562;DHT22;3822;48.784;9.174;2023-03-13T06:15:22;13.60;92.90
7562;DHT22;3822;48.784;9.174;2023-03-13T06:17:48;13.60;92.90
7562;DHT22;3822;48.784;9.174;2023-03-13T06:20:14;13.60;92.90
7562;DHT22;3822;48.784;9.174;2023-03-13T06:22:41;13.60;93.10
7562;DHT22;3822;48.784;9.174;2023-03-13T06:25:07;13.70;92.80
7562;DHT22;3822;48.784;9.174;2023-03-13T06:27:34;13.70;92.80
7562;DHT22;3822;48.784;9.174;2023-03-13T06:30:00;13.70;92.80
7562;DHT22;3822;48.784;9.174;2023-03-13T06:32:27;13.70;92.80
7562;DHT22;3822;48.784;9.174;2023-03-13T06:34:53;13.80;92.90
7562;DHT22;3822;48.784;9.174;2023-03-13T06:37:19;13.80;92.80
7562;DHT22;3822;48.784;9.174;2023-03-13T06:39:46;13.80;92.80
7562;DHT22;3822;48.784;9.174;2023-03-13T06:42:12;13.80;92.90
7562;DHT22;3822;48.784;9.174;2023-03-13T06:44:39;13.90;92.90
7562;DHT22;3822;48.784;9.174;2023-03-13T06:47:06;13.90;92.90
7562;DHT22;3822;48.784;9.174;2023-03-13T06:49:32;13.90;92.90
7562;DHT22;3822;48.784;9.174;2023-03-13T06:51:59;13.90;92.90
7562;DHT22;3822;48.784;9.174;2023-03-13T06:54:25;13.90;92.90
7562;DHT22;3822;48.784;9.174;2023-03-13T06:56:54;13.90;93.00
7562;DHT22;3822;48.784;9.174;2023-03-13T06:59:22;13.90;92.90
7562;DHT22;3822;48.784;9.174;2023-03-13T07:01:48;14.00;93.00
7562;DHT22;3822;48.784;9.174;2023-03-13T07:04:15;14.00;92.90
7562;DHT22;3822;48.784;9.174;2023-03-13T07:06:41;14.00;93.00
7562;DHT22;3822;48.784;9.174;2023-03-13T07:09:08;14.00;92.90
7562;DHT22;3822;48.784;9.174;2023-03-13T07:11:35;14.10;93.00
7562;DHT22;3822;48.784;9.174;2023-03-13T07:14:01;14.00;93.00
7562;DHT22;3822;48.784;9.174;2023-03-13T07:16:28;14.10;93.10
7562;DHT22;3822;48.784;9.174;2023-03-13T07:18:54;14.10;93.00
7562;DHT22;3822;48.784;9.174;2023-03-13T07:21:20;14.10;93.00
7562;DHT22;3822;48.784;9.174;2023-03-13T07:23:47;14.10;93.10
7562;DHT22;3822;48.784;9.174;2023-03-13T07:26:14;14.10;93.20
7562;DHT22;3822;48.784;9.174;2023-03-13T07:28:40;14.10;93.30
7562;DHT22;3822;48.784;9.174;2023-03-13T07:31:11;14.10;93.30
7562;DHT22;3822;48.784;9.174;2023-03-13T07:33:39;14.10;93.30
7562;DHT22;3822;48.784;9.174;2023-03-13T07:36:06;14.20;93.30
7562;DHT22;3822;48.784;9.174;2023-03-13T07:38:33;14.20;93.40
7562;DHT22;3822;48.784;9.174;2023-03-13T07:41:00;14.20;93.30
7562;DHT22;3822;48.784;9.174;2023-03-13T07:43:26;14.20;93.40
7562;DHT22;3822;48.784;9.174;2023-03-13T07:45:58;14.20;93.40
7562;DHT22;3822;48.784;9.174;2023-03-13T07:48:38;14.20;93.40
7562;DHT22;3822;48.784;9.174;2023-03-13T07:51:06;14.20;93.70
7562;DHT22;3822;48.784;9.174;2023-03-13T07:53:36;14.30;93.40
7562;DHT22;3822;48.784;9.174;2023-03-13T07:56:05;14.30;93.40
7562;DHT22;3822;48.784;9.174;2023-03-13T07:58:33;14.30;93.40
7562;DHT22;3822;48.784;9.174;2023-03-13T08:01:11;14.30;93.40
7562;DHT22;3822;48.784;9.174;2023-03-13T08:03:48;14.30;93.40
7562;DHT22;3822;48.784;9.174;2023-03-13T08:06:17;14.30;93.40
7562;DHT22;3822;48.784;9.174;2023-03-13T08:08:45;14.30;93.40
7562;DHT22;3822;48.784;9.174;2023-03-13T08:11:13;14.40;93.40
7562;DHT22;3822;48.784;9.174;2023-03-13T08:13:41;14.40;93.40
7562;DHT22;3822;48.784;9.174;2023-03-13T08:18:35;14.50;93.40
7562;DHT22;3822;48.784;9.174;2023-03-13T08:21:07;14.50;93.30
7562;DHT22;3822;48.784;9.174;2023-03-13T08:23:35;14.50;93.30
7562;DHT22;3822;48.784;9.174;2023-03-13T08:28:32;14.60;93.20
7562;DHT22;3822;48.784;9.174;2023-03-13T08:31:05;14.60;93.20
7562;DHT22;3822;48.784;9.174;2023-03-13T08:33:35;14.70;93.10
7562;DHT22;3822;48.784;9.174;2023-03-13T08:38:40;14.70;93.00
7562;DHT22;3822;48.784;9.174;2023-03-13T08:41:09;14.80;92.90
7562;DHT22;3822;48.784;9.174;2023-03-13T08:43:42;14.90;92.90
7562;DHT22;3822;48.784;9.174;2023-03-13T08:46:09;14.90;92.90
7562;DHT22;3822;48.784;9.174;2023-03-13T08:48:36;14.90;92.80
7562;DHT22;3822;48.784;9.174;2023-03-13T08:51:12;15.00;92.70
7562;DHT22;3822;48.784;9.174;2023-03-13T08:53:40;15.00;92.60
7562;DHT22;3822;48.784;9.174;2023-03-13T08:56:08;15.00;92.50
7562;DHT22;3822;48.784;9.174;2023-03-13T08:58:35;15.10;92.50
7562;DHT22;3822;48.784;9.174;2023-03-13T09:01:06;15.10;92.50
7562;DHT22;3822;48.784;9.174;2023-03-13T09:03:37;15.20;92.40
7562;DHT22;3822;48.784;9.174;2023-03-13T09:06:04;15.20;92.30
7562;DHT22;3822;48.784;9.174;2023-03-13T09:08:30;15.20;92.20
7562;DHT22;3822;48.784;9.174;2023-03-13T09:10:58;15.30;92.20
7562;DHT22;3822;48.784;9.174;2023-03-13T09:13:33;15.30;92.10
7562;DHT22;3822;48.784;9.174;2023-03-13T09:16:01;15.40;92.00
7562;DHT22;3822;48.784;9.174;2023-03-13T09:18:30;15.40;92.00
7562;DHT22;3822;48.784;9.174;2023-03-13T09:20:56;15.40;91.80
7562;DHT22;3822;48.784;9.174;2023-03-13T09:23:23;15.50;91.80
7562;DHT22;3822;48.784;9.174;2023-03-13T09:25:54;16.70;92.20
7562;DHT22;3822;48.784;9.174;2023-03-13T09:28:22;15.50;91.50
7562;DHT22;3822;48.784;9.174;2023-03-13T09:30:49;15.50;91.50
7562;DHT22;3822;48.784;9.174;2023-03-13T09:33:15;15.60;91.50
7562;DHT22;3822;48.784;9.174;2023-03-13T09:35:42;15.60;91.40
7562;DHT22;3822;48.784;9.174;2023-03-13T09:38:11;15.70;91.30
7562;DHT22;3822;48.784;9.174;2023-03-13T09:40:40;15.70;91.20
7562;DHT22;3822;48.784;9.174;2023-03-13T09:43:11;15.70;91.10
7562;DHT22;3822;48.784;9.174;2023-03-13T09:45:47;15.70;91.10
7562;DHT22;3822;48.784;9.174;2023-03-13T09:53:54;15.80;90.90
7562;DHT22;3822;48.784;9.174;2023-03-13T09:56:26;15.80;90.90
7562;DHT22;3822;48.784;9.174;2023-03-13T09:58:58;15.90;90.80
7562;DHT22;3822;48.784;9.174;2023-03-13T10:01:30;16.00;90.80
7562;DHT22;3822;48.784;9.174;2023-03-13T10:06:32;16.10;90.70
7562;DHT22;3822;48.784;9.174;2023-03-13T10:09:00;16.20;90.60
7562;DHT22;3822;48.784;9.174;2023-03-13T10:11:36;16.20;90.40
7562;DHT22;3822;48.784;9.174;2023-03-13T10:14:12;16.30;90.40
7562;DHT22;3822;48.784;9.174;2023-03-13T10:17:01;16.40;90.40
7562;DHT22;3822;48.784;9.174;2023-03-13T10:19:36;16.50;90.10
7562;DHT22;3822;48.784;9.174;2023-03-13T10:22:11;16.60;90.00
7562;DHT22;3822;48.784;9.174;2023-03-13T10:27:13;16.70;89.20
7562;DHT22;3822;48.784;9.174;2023-03-13T10:29:40;16.80;88.40
7562;DHT22;3822;48.784;9.174;2023-03-13T10:32:07;16.90;87.80
7562;DHT22;3822;48.784;9.174;2023-03-13T10:34:57;17.00;87.70
7562;DHT22;3822;48.784;9.174;2023-03-13T10:37:26;17.00;87.60
7562;DHT22;3822;48.784;9.174;2023-03-13T10:40:10;17.20;87.30
7562;DHT22;3822;48.784;9.174;2023-03-13T10:42:45;17.20;86.90
7562;DHT22;3822;48.784;9.174;2023-03-13T10:45:18;17.30;86.60
7562;DHT22;3822;48.784;9.174;2023-03-13T10:47:52;17.40;86.30
7562;DHT22;3822;48.784;9.174;2023-03-13T10:50:21;17.40;86.00
7562;DHT22;3822;48.784;9.174;2023-03-13T10:52:49;17.50;85.80
7562;DHT22;3822;48.784;9.174;2023-03-13T10:55:20;17.50;85.20
7562;DHT22;3822;48.784;9.174;2023-03-13T10:58:00;17.60;85.30
7562;DHT22;3822;48.784;9.174;2023-03-13T11:00:35;17.70;85.40
7562;DHT22;3822;48.784;9.174;2023-03-13T11:03:04;17.80;85.40
7562;DHT22;3822;48.784;9.174;2023-03-13T11:05:36;17.80;85.30
7562;DHT22;3822;48.784;9.174;2023-03-13T11:08:11;17.90;84.80
7562;DHT22;3822;48.784;9.174;2023-03-13T11:10:55;18.00;84.80
7562;DHT22;3822;48.784;9.174;2023-03-13T11:13:26;18.10;84.20
7562;DHT22;3822;48.784;9.174;2023-03-13T11:16:10;18.20;84.10
7562;DHT22;3822;48.784;9.174;2023-03-13T11:21:59;18.30;83.70
7562;DHT22;3822;48.784;9.174;2023-03-13T11:24:45;18.30;83.40
7562;DHT22;3822;48.784;9.174;2023-03-13T11:33:00;18.50;82.70
7562;DHT22;3822;48.784;9.174;2023-03-13T11:35:48;18.60;82.50
7562;DHT22;3822;48.784;9.174;2023-03-13T11:38:25;18.60;82.40
7562;DHT22;3822;48.784;9.174;2023-03-13T11:40:58;18.70;82.20
7562;DHT22;3822;48.784;9.174;2023-03-13T11:43:32;18.80;82.00
7562;DHT22;3822;48.784;9.174;2023-03-13T11:51:57;19.10;80.30
7562;DHT22;3822;48.784;9.174;2023-03-13T11:54:49;19.20;80.00
7562;DHT22;3822;48.784;9.174;2023-03-13T12:03:29;19.50;79.00
7562;DHT22;3822;48.784;9.174;2023-03-13T12:06:05;19.60;79.00
7562;DHT22;3822;48.784;9.174;2023-03-13T12:08:48;19.80;78.40
7562;DHT22;3822;48.784;9.174;2023-03-13T12:11:28;19.90;78.10
7562;DHT22;3822;48.784;9.174;2023-03-13T12:14:32;20.00;77.90
7562;DHT22;3822;48.784;9.174;2023-03-13T12:17:02;20.10;77.60
7562;DHT22;3822;48.784;9.174;2023-03-13T12:22:25;20.20;76.20
7562;DHT22;3822;48.784;9.174;2023-03-13T12:24:57;20.30;76.20
7562;DHT22;3822;48.784;9.174;2023-03-13T12:27:28;20.30;76.10
7562;DHT22;3822;48.784;9.174;2023-03-13T12:37:41;20.90;74.50
7562;DHT22;3822;48.784;9.174;2023-03-13T12:40:14;21.00;73.70
7562;DHT22;3822;48.784;9.174;2023-03-13T12:45:36;21.10;72.00
7562;DHT22;3822;48.784;9.174;2023-03-13T12:53:33;21.40;70.40
7562;DHT22;3822;48.784;9.174;2023-03-13T13:01:38;21.70;69.50
7562;DHT22;3822;48.784;9.174;2023-03-13T13:07:01;21.90;68.60
7562;DHT22;3822;48.784;9.174;2023-03-13T13:09:30;22.00;67.80
7562;DHT22;3822;48.784;9.174;2023-03-13T13:12:20;22.00;67.40
7562;DHT22;3822;48.784;9.174;2023-03-13T13:17:15;22.20;66.80
7562;DHT22;3822;48.784;9.174;2023-03-13T13:19:46;22.30;66.50
7562;DHT22;3822;48.784;9.174;2023-03-13T13:30:03;22.50;64.10
7562;DHT22;3822;48.784;9.174;2023-03-13T13:32:52;22.50;63.10
7562;DHT22;3822;48.784;9.174;2023-03-13T13:35:26;22.50;63.50
7562;DHT22;3822;48.784;9.174;2023-03-13T13:38:42;22.50;62.50
7562;DHT22;3822;48.784;9.174;2023-03-13T13:43:34;22.40;62.70
7562;DHT22;3822;48.784;9.174;2023-03-13T13:49:05;22.30;62.70
7562;DHT22;3822;48.784;9.174;2023-03-13T13:51:40;22.30;63.40
7562;DHT22;3822;48.784;9.174;2023-03-13T13:57:20;22.20;62.70
7562;DHT22;3822;48.784;9.174;2023-03-13T13:59:53;22.30;62.50
7562;DHT22;3822;48.784;9.174;2023-03-13T14:02:24;22.30;62.50
7562;DHT22;3822;48.784;9.174;2023-03-13T14:07:29;22.40;62.80
7562;DHT22;3822;48.784;9.174;2023-03-13T14:12:51;22.40;62.30
7562;DHT22;3822;48.784;9.174;2023-03-13T14:18:40;22.50;61.80
7562;DHT22;3822;48.784;9.174;2023-03-13T14:23:29;22.60;61.50
7562;DHT22;3822;48.784;9.174;2023-03-13T14:28:48;22.70;61.70
7562;DHT22;3822;48.784;9.174;2023-03-13T14:31:22;22.80;61.00
7562;DHT22;3822;48.784;9.174;2023-03-13T14:34:10;22.80;60.90
7562;DHT22;3822;48.784;9.174;2023-03-13T14:42:01;23.20;57.60
7562;DHT22;3822;48.784;9.174;2023-03-13T14:44:29;23.30;57.40
7562;DHT22;3822;48.784;9.174;2023-03-13T14:47:03;23.40;56.50
7562;DHT22;3822;48.784;9.174;2023-03-13T14:49:30;23.50;56.50
7562;DHT22;3822;48.784;9.174;2023-03-13T14:52:04;23.60;56.80
7562;DHT22;3822;48.784;9.174;2023-03-13T14:54:56;23.80;56.90
7562;DHT22;3822;48.784;9.174;2023-03-13T14:57:29;24.00;56.30
7562;DHT22;3822;48.784;9.174;2023-03-13T15:05:44;24.50;54.90
7562;DHT22;3822;48.784;9.174;2023-03-13T15:08:12;24.60;54.40
7562;DHT22;3822;48.784;9.174;2023-03-13T15:10:39;24.70;54.30
7562;DHT22;3822;48.784;9.174;2023-03-13T15:13:15;24.80;54.10
7562;DHT22;3822;48.784;9.174;2023-03-13T15:16:02;24.90;53.60
7562;DHT22;3822;48.784;9.174;2023-03-13T15:18:39;25.00;53.70
7562;DHT22;3822;48.784;9.174;2023-03-13T15:23:35;25.00;52.80
7562;DHT22;3822;48.784;9.174;2023-03-13T15:26:01;25.00;52.90
7562;DHT22;3822;48.784;9.174;2023-03-13T15:28:28;25.00;53.20
7562;DHT22;3822;48.784;9.174;2023-03-13T15:30:54;25.10;52.90
7562;DHT22;3822;48.784;9.174;2023-03-13T15:33:21;25.10;52.90
7562;DHT22;3822;48.784;9.174;2023-03-13T15:35:49;25.10;52.80
7562;DHT22;3822;48.784;9.174;2023-03-13T15:38:16;25.20;52.70
7562;DHT22;3822;48.784;9.174;2023-03-13T15:40:44;25.20;52.90
7562;DHT22;3822;48.784;9.174;2023-03-13T15:43:11;25.30;52.70
7562;DHT22;3822;48.784;9.174;2023-03-13T15:45:39;25.20;52.20
7562;DHT22;3822;48.784;9.174;2023-03-13T15:48:23;25.30;52.60
7562;DHT22;3822;48.784;9.174;2023-03-13T15:50:54;25.30;52.30
7562;DHT22;3822;48.784;9.174;2023-03-13T15:53:26;25.30;52.10
7562;DHT22;3822;48.784;9.174;2023-03-13T15:55:55;25.20;51.90
7562;DHT22;3822;48.784;9.174;2023-03-13T15:58:23;25.20;52.10
7562;DHT22;3822;48.784;9.174;2023-03-13T16:00:50;25.20;52.20
7562;DHT22;3822;48.784;9.174;2023-03-13T16:03:35;25.30;52.30
7562;DHT22;3822;48.784;9.174;2023-03-13T16:06:05;25.30;51.80
7562;DHT22;3822;48.784;9.174;2023-03-13T16:08:37;25.30;51.50
7562;DHT22;3822;48.784;9.174;2023-03-13T16:11:03;25.20;51.60
7562;DHT22;3822;48.784;9.174;2023-03-13T16:13:30;25.20;51.40
7562;DHT22;3822;48.784;9.174;2023-03-13T16:15:56;25.20;51.60
7562;DHT22;3822;48.784;9.174;2023-03-13T16:18:23;25.20;51.40
7562;DHT22;3822;48.784;9.174;2023-03-13T16:20:50;25.20;51.80
7562;DHT22;3822;48.784;9.174;2023-03-13T16:23:17;25.20;52.00
7562;DHT22;3822;48.784;9.174;2023-03-13T16:25:44;25.30;52.00
7562;DHT22;3822;48.784;9.174;2023-03-13T16:28:11;25.20;52.20
7562;DHT22;3822;48.784;9.174;2023-03-13T16:30:38;25.40;52.50
7562;DHT22;3822;48.784;9.174;2023-03-13T16:33:06;25.40;52.50
7562;DHT22;3822;48.784;9.174;2023-03-13T16:35:32;25.40;52.60
7562;DHT22;3822;48.784;9.174;2023-03-13T16:37:59;25.30;52.70
7562;DHT22;3822;48.784;9.174;2023-03-13T16:40:26;25.30;52.80
7562;DHT22;3822;48.784;9.174;2023-03-13T16:42:55;25.30;53.10
7562;DHT22;3822;48.784;9.174;2023-03-13T16:45:21;25.30;53.40
7562;DHT22;3822;48.784;9.174;2023-03-13T16:47:48;25.30;53.50
7562;DHT22;3822;48.784;9.174;2023-03-13T16:53:00;25.10;53.40
7562;DHT22;3822;48.784;9.174;2023-03-13T16:55:29;25.00;53.60
7562;DHT22;3822;48.784;9.174;2023-03-13T16:58:00;24.90;53.60
7562;DHT22;3822;48.784;9.174;2023-03-13T17:00:28;24.90;53.70
7562;DHT22;3822;48.784;9.174;2023-03-13T17:02:55;24.70;53.80
7562;DHT22;3822;48.784;9.174;2023-03-13T17:05:23;24.60;54.00
7562;DHT22;3822;48.784;9.174;2023-03-13T17:07:50;24.50;54.10
7562;DHT22;3822;48.784;9.174;2023-03-13T17:10:18;24.50;54.20
7562;DHT22;3822;48.784;9.174;2023-03-13T17:12:48;24.40;54.40
7562;DHT22;3822;48.784;9.174;2023-03-13T17:15:15;24.30;54.50
7562;DHT22;3822;48.784;9.174;2023-03-13T17:17:42;24.20;54.70
7562;DHT22;3822;48.784;9.174;2023-03-13T17:20:13;24.20;55.00
7562;DHT22;3822;48.784;9.174;2023-03-13T17:22:41;24.10;55.10
7562;DHT22;3822;48.784;9.174;2023-03-13T17:25:08;24.00;55.20
7562;DHT22;3822;48.784;9.174;2023-03-13T17:27:35;24.00;55.40
7562;DHT22;3822;48.784;9.174;2023-03-13T17:30:01;23.90;55.50
7562;DHT22;3822;48.784;9.174;2023-03-13T17:32:29;23.80;56.30
7562;DHT22;3822;48.784;9.174;2023-03-13T17:34:55;24.00;56.10
7562;DHT22;3822;48.784;9.174;2023-03-13T17:37:22;23.70;56.00
7562;DHT22;3822;48.784;9.174;2023-03-13T17:39:48;23.70;56.10
7562;DHT22;3822;48.784;9.174;2023-03-13T17:42:16;23.60;56.20
7562;DHT22;3822;48.784;9.174;2023-03-13T17:44:42;23.60;56.40
7562;DHT22;3822;48.784;9.174;2023-03-13T17:47:10;23.50;56.50
7562;DHT22;3822;48.784;9.174;2023-03-13T17:49:38;23.40;56.60
7562;DHT22;3822;48.784;9.174;2023-03-13T17:52:04;23.40;57.40
7562;DHT22;3822;48.784;9.174;2023-03-13T17:54:31;23.30;56.90
7562;DHT22;3822;48.784;9.174;2023-03-13T17:56:57;23.30;57.20
7562;DHT22;3822;48.784;9.174;2023-03-13T17:59:23;23.20;57.20
7562;DHT22;3822;48.784;9.174;2023-03-13T18:01:50;23.20;57.30
7562;DHT22;3822;48.784;9.174;2023-03-13T18:04:16;23.10;57.40
7562;DHT22;3822;48.784;9.174;2023-03-13T18:06:43;23.00;57.50
7562;DHT22;3822;48.784;9.174;2023-03-13T18:09:16;23.00;57.80
7562;DHT22;3822;48.784;9.174;2023-03-13T18:11:43;22.90;57.90
7562;DHT22;3822;48.784;9.174;2023-03-13T18:14:10;22.90;58.10
7562;DHT22;3822;48.784;9.174;2023-03-13T18:16:46;22.80;58.20
7562;DHT22;3822;48.784;9.174;2023-03-13T18:21:41;22.60;58.60
7562;DHT22;3822;48.784;9.174;2023-03-13T18:24:08;22.60;59.00
7562;DHT22;3822;48.784;9.174;2023-03-13T18:26:36;22.50;59.30